Time;durP1;ratioP1;P1;durP2;ratioP2;P2;SDS_P1;SDS_P2;PMS_P1;PMS_P2;Temp;Humidity;BMP_temperature;BMP_pressure;BME280_temperature;BME280_humidity;BME280_pressure;Samples;Min_cycle;Max_cycle;Signal;HPM_P1;HPM_P2
2023/10/27 00:02:16;;;;;;;5.23;2.63;;;;;;;13.41;100.00;98674.70;1476650;88;22067;-79
2023/10/27 00:04:43;;;;;;;5.83;2.97;;;;;;;13.42;100.00;98678.16;1474684;87;22222;-79
2023/10/27 00:07:10;;;;;;;3.87;2.73;;;;;;;13.42;100.00;98674.18;1489483;88;21404;-79
2023/10/27 00:09:37;;;;;;;6.97;2.90;;;;;;;13.42;100.00;98663.03;1480587;87;21396;-79
2023/10/27 00:12:06;;;;;;;7.97;3.23;;;;;;;13.42;100.00;98664.88;1489537;87;21426;-79
2023/10/27 00:14:34;;;;;;;7.73;3.57;;;;;;;13.40;100.00;98661.09;1484484;87;21323;-79
2023/10/27 00:17:01;;;;;;;5.67;3.33;;;;;;;13.37;100.00;98659.37;1486301;87;21537;-79
2023/10/27 00:19:28;;;;;;;5.87;3.77;;;;;;;13.33;100.00;98654.98;1480496;87;21846;-79
2023/10/27 00:21:55;;;;;;;5.47;3.83;;;;;;;13.33;100.00;98663.48;1487578;87;21573;-79
2023/10/27 00:24:24;;;;;;;6.83;4.07;;;;;;;13.33;100.00;98654.18;1488022;88;21411;-79
2023/10/27 00:26:51;;;;;;;8.50;4.43;;;;;;;13.34;100.00;98655.28;1489149;87;21375;-79
2023/10/27 00:29:18;;;;;;;8.47;3.80;;;;;;;13.37;100.00;98658.04;1484543;87;22247;-77
2023/10/27 00:31:45;;;;;;;10.83;4.23;;;;;;;13.36;100.00;98660.41;1491932;88;21337;-79
2023/10/27 00:34:13;;;;;;;17.70;5.47;;;;;;;13.33;100.00;98658.98;1479011;88;21249;-77
2023/10/27 00:36:40;;;;;;;8.03;3.97;;;;;;;13.32;100.00;98657.33;1483506;87;22269;-78
2023/10/27 00:39:07;;;;;;;11.90;5.50;;;;;;;13.32;100.00;98652.02;1488176;87;21822;-78
2023/10/27 00:41:34;;;;;;;7.57;4.43;;;;;;;13.33;100.00;98651.00;1481270;87;22418;-79
2023/10/27 00:44:01;;;;;;;11.70;5.37;;;;;;;13.35;100.00;98653.44;1489738;88;21360;-78
2023/10/27 00:46:28;;;;;;;8.70;4.57;;;;;;;13.35;100.00;98653.44;1484203;87;21330;-77
2023/10/27 00:48:56;;;;;;;11.30;4.47;;;;;;;13.35;100.00;98648.12;1480895;87;21565;-78
2023/10/27 00:51:24;;;;;;;9.60;5.10;;;;;;;13.34;100.00;98650.48;1481002;87;21500;-78
2023/10/27 00:53:52;;;;;;;10.17;5.97;;;;;;;13.32;100.00;98645.37;1477601;87;21352;-77
2023/10/27 00:56:21;;;;;;;8.70;4.70;;;;;;;13.31;100.00;98642.42;1484185;87;21426;-78
2023/10/27 00:58:49;;;;;;;8.40;4.60;;;;;;;13.21;100.00;98645.48;1469771;88;21523;-82
2023/10/27 01:01:18;;;;;;;9.17;5.27;;;;;;;13.10;100.00;98640.29;1476346;88;21426;-80
2023/10/27 01:03:45;;;;;;;12.43;4.50;;;;;;;13.01;100.00;98641.54;1484946;87;21345;-80
2023/10/27 01:06:12;;;;;;;6.03;3.57;;;;;;;12.93;100.00;98640.42;1484539;88;21412;-80
2023/10/27 01:08:40;;;;;;;6.63;4.60;;;;;;;12.82;100.00;98639.72;1487124;87;21404;-80
2023/10/27 01:11:08;;;;;;;4.30;3.90;;;;;;;12.74;100.00;98639.41;1485277;87;21360;-82
2023/10/27 01:13:35;;;;;;;5.37;3.77;;;;;;;12.68;100.00;98640.23;1482125;87;21441;-81
2023/10/27 01:16:03;;;;;;;4.63;3.73;;;;;;;12.58;100.00;98638.51;1479862;88;21316;-81
2023/10/27 01:18:30;;;;;;;5.27;3.63;;;;;;;12.51;100.00;98635.02;1488486;87;21537;-81
2023/10/27 01:21:00;;;;;;;6.33;4.47;;;;;;;12.43;100.00;98628.09;1468227;88;21470;-80
2023/10/27 01:23:27;;;;;;;4.47;3.60;;;;;;;12.38;100.00;98618.60;1488104;88;21486;-81
2023/10/27 01:25:54;;;;;;;5.60;4.00;;;;;;;12.37;100.00;98612.97;1488105;87;21375;-79
2023/10/27 01:28:22;;;;;;;6.27;3.47;;;;;;;12.33;100.00;98609.10;1477957;88;22971;-81
2023/10/27 01:30:49;;;;;;;7.07;3.60;;;;;;;12.30;100.00;98602.88;1482213;87;21323;-80
2023/10/27 01:33:16;;;;;;;4.57;3.87;;;;;;;12.25;100.00;98596.03;1485713;88;21368;-79
2023/10/27 01:35:44;;;;;;;4.77;3.37;;;;;;;12.18;100.00;98598.17;1480260;88;22285;-78
2023/10/27 01:38:11;;;;;;;4.97;3.97;;;;;;;12.16;100.00;98594.89;1488829;87;21472;-79
2023/10/27 01:40:39;;;;;;;5.37;4.33;;;;;;;12.11;100.00;98592.05;1471502;88;21367;-79
2023/10/27 01:43:06;;;;;;;4.90;3.73;;;;;;;12.12;100.00;98595.01;1481759;88;22284;-80
2023/10/27 01:45:33;;;;;;;7.13;4.17;;;;;;;12.11;100.00;98586.75;1477900;88;21519;-80
2023/10/27 01:48:00;;;;;;;5.10;3.53;;;;;;;12.09;100.00;98582.16;1475591;87;21544;-81
2023/10/27 01:50:27;;;;;;;5.30;3.07;;;;;;;12.08;100.00;98584.48;1485048;87;21486;-82
2023/10/27 01:52:54;;;;;;;7.13;3.60;;;;;;;12.05;100.00;98574.28;1473390;88;22351;-81
2023/10/27 01:55:24;;;;;;;6.73;2.90;;;;;;;12.02;100.00;98574.69;1471636;88;21427;-81
2023/10/27 01:57:51;;;;;;;6.70;3.00;;;;;;;12.00;100.00;98567.95;1487758;87;21496;-82
2023/10/27 02:00:18;;;;;;;5.83;2.90;;;;;;;11.97;100.00;98571.84;1479606;87;21300;-82
2023/10/27 02:02:46;;;;;;;5.30;3.57;;;;;;;11.96;100.00;98560.91;1476858;87;21500;-81
2023/10/27 02:05:14;;;;;;;6.30;3.90;;;;;;;11.94;100.00;98559.81;1471800;88;21492;-81
2023/10/27 02:07:41;;;;;;;6.13;4.00;;;;;;;11.94;100.00;98557.67;1478797;87;21330;-81
2023/10/27 02:10:08;;;;;;;6.30;3.03;;;;;;;11.93;100.00;98559.99;1477016;87;21434;-81
2023/10/27 02:12:35;;;;;;;4.37;3.30;;;;;;;11.91;100.00;98546.12;1481902;87;22344;-81
2023/10/27 02:15:03;;;;;;;3.90;3.30;;;;;;;11.91;100.00;98542.14;1482616;87;21330;-81
2023/10/27 02:17:30;;;;;;;7.13;4.73;;;;;;;11.91;100.00;98540.81;1481028;88;21338;-81
2023/10/27 02:19:58;;;;;;;6.77;4.80;;;;;;;11.91;100.00;98532.86;1490565;88;21426;-81
2023/10/27 02:22:25;;;;;;;11.20;3.97;;;;;;;11.94;100.00;98533.81;1471478;88;21382;-82
2023/10/27 02:24:52;;;;;;;5.83;4.03;;;;;;;11.95;100.00;98536.76;1484159;87;21470;-81
2023/10/27 02:27:21;;;;;;;7.77;4.37;;;;;;;11.95;100.00;98538.89;1486475;87;21827;-82
2023/10/27 02:29:48;;;;;;;5.10;3.50;;;;;;;11.97;100.00;98528.10;1485937;88;21403;-82
2023/10/27 02:32:15;;;;;;;6.43;4.27;;;;;;;12.01;100.00;98535.95;1482410;88;21374;-83
2023/10/27 02:34:42;;;;;;;8.03;3.87;;;;;;;12.05;100.00;98537.16;1470398;88;21353;-82
2023/10/27 02:37:09;;;;;;;5.77;4.27;;;;;;;12.08;100.00;98539.40;1487370;87;21375;-84
2023/10/27 02:39:37;;;;;;;16.67;5.20;;;;;;;12.10;100.00;98544.00;1481372;88;21485;-83
2023/10/27 02:42:05;;;;;;;9.90;6.67;;;;;;;12.11;100.00;98543.00;1491305;88;21426;-83
2023/10/27 02:44:32;;;;;;;38.73;18.97;;;;;;;12.13;100.00;98542.78;1487234;88;22081;-83
2023/10/27 02:46:59;;;;;;;72.60;36.57;;;;;;;12.14;100.00;98550.55;1482850;87;22277;-81
2023/10/27 02:49:26;;;;;;;70.13;34.63;;;;;;;12.15;100.00;98551.36;1483511;87;21485;-81
2023/10/27 02:51:54;;;;;;;69.70;38.17;;;;;;;12.16;100.00;98555.12;1472840;87;21553;-82
2023/10/27 02:54:21;;;;;;;55.37;30.63;;;;;;;12.18;100.00;98556.25;1470561;87;21368;-82
2023/10/27 02:56:48;;;;;;;39.37;21.87;;;;;;;12.19;100.00;98553.90;1465142;88;21383;-82
2023/10/27 02:59:15;;;;;;;25.60;16.13;;;;;;;12.24;100.00;98553.30;1471485;87;22395;-81
2023/10/27 03:01:45;;;;;;;21.53;10.97;;;;;;;12.26;100.00;98553.92;1461435;88;21479;-83
2023/10/27 03:04:13;;;;;;;19.62;11.12;;;;;;;12.25;100.00;98554.41;1479380;87;21500;-83
2023/10/27 03:06:41;;;;;;;15.87;9.43;;;;;;;12.29;100.00;98550.86;1473843;87;21343;-83
2023/10/27 03:09:10;;;;;;;17.55;10.00;;;;;;;12.37;100.00;98553.28;1473763;88;21411;-82
2023/10/27 03:11:37;;;;;;;13.47;8.63;;;;;;;12.44;100.00;98551.45;1471445;88;22350;-82
2023/10/27 03:14:05;;;;;;;13.07;7.00;;;;;;;12.50;100.00;98547.16;1480569;88;21412;-82
2023/10/27 03:16:32;;;;;;;11.90;6.40;;;;;;;12.56;100.00;98547.15;1474541;88;22536;-83
2023/10/27 03:19:00;;;;;;;12.77;6.10;;;;;;;12.64;100.00;98548.27;1475267;87;21392;-83
2023/10/27 03:21:27;;;;;;;10.37;5.40;;;;;;;12.71;100.00;98540.80;1477967;88;21468;-85
2023/10/27 03:23:54;;;;;;;11.57;5.17;;;;;;;12.77;100.00;98547.92;1476617;87;22381;-84
2023/10/27 03:26:21;;;;;;;9.10;4.80;;;;;;;12.83;100.00;98541.78;1476682;87;21502;-84
2023/10/27 03:28:49;;;;;;;8.30;5.37;;;;;;;12.86;100.00;98530.78;1468041;87;22544;-84
2023/10/27 03:31:17;;;;;;;10.47;4.37;;;;;;;12.91;100.00;98533.59;1482091;87;21405;-84
2023/10/27 03:33:45;;;;;;;12.93;5.73;;;;;;;12.98;100.00;98528.29;1477775;87;22240;-84
2023/10/27 03:36:12;;;;;;;9.60;5.30;;;;;;;13.02;100.00;98527.64;1467693;88;21544;-84
2023/10/27 03:38:40;;;;;;;10.90;5.53;;;;;;;13.06;100.00;98522.72;1469611;87;21309;-84
2023/10/27 03:41:08;;;;;;;15.53;4.93;;;;;;;13.08;100.00;98521.48;1471589;87;21538;-81
2023/10/27 03:43:35;;;;;;;8.90;4.73;;;;;;;13.13;100.00;98514.75;1475935;87;21397;-81
2023/10/27 03:46:03;;;;;;;9.63;4.93;;;;;;;13.16;100.00;98508.50;1467155;88;21545;-81
2023/10/27 03:48:30;;;;;;;9.27;4.70;;;;;;;13.20;100.00;98510.21;1479761;87;22387;-80
2023/10/27 03:50:57;;;;;;;7.87;4.93;;;;;;;13.23;100.00;98501.30;1483263;87;21537;-81
2023/10/27 03:53:24;;;;;;;12.43;5.40;;;;;;;13.26;100.00;98496.11;1478246;88;21345;-82
2023/10/27 03:55:53;;;;;;;9.63;6.10;;;;;;;13.27;100.00;98500.41;1489467;88;21308;-82
2023/10/27 03:58:20;;;;;;;11.60;4.93;;;;;;;13.29;100.00;98491.21;1486880;87;22621;-82
2023/10/27 04:00:48;;;;;;;9.60;4.87;;;;;;;13.32;100.00;98489.95;1482880;87;21353;-83
2023/10/27 04:03:15;;;;;;;8.90;4.63;;;;;;;13.34;100.00;98489.23;1486635;88;21482;-82
2023/10/27 04:05:42;;;;;;;9.13;4.70;;;;;;;13.36;100.00;98483.20;1484346;87;21476;-82
2023/10/27 04:08:09;;;;;;;12.27;5.13;;;;;;;13.40;100.00;98475.09;1478042;87;21382;-82
2023/10/27 04:10:37;;;;;;;11.20;4.73;;;;;;;13.43;100.00;98470.67;1471914;88;22350;-82
2023/10/27 04:13:07;;;;;;;13.10;5.03;;;;;;;13.45;100.00;98469.95;1470705;88;21472;-82
2023/10/27 04:15:35;;;;;;;6.67;4.30;;;;;;;13.46;100.00;98466.78;1481833;88;22298;-83
2023/10/27 04:18:02;;;;;;;10.63;4.73;;;;;;;13.48;100.00;98466.87;1482841;87;22253;-82
2023/10/27 04:20:29;;;;;;;9.90;4.20;;;;;;;13.50;100.00;98460.83;1489768;87;21367;-82
2023/10/27 04:22:56;;;;;;;13.10;5.33;;;;;;;13.51;100.00;98466.44;1484952;87;22320;-82
2023/10/27 04:25:24;;;;;;;23.10;7.00;;;;;;;13.52;100.00;98470.74;1472338;88;21468;-81
2023/10/27 04:27:51;;;;;;;12.93;5.60;;;;;;;13.54;100.00;98462.02;1488828;88;21405;-81
2023/10/27 04:30:19;;;;;;;9.90;4.57;;;;;;;13.57;100.00;98469.27;1484759;88;21471;-82
2023/10/27 04:32:47;;;;;;;9.03;4.33;;;;;;;13.58;100.00;98468.23;1487485;87;21433;-80
2023/10/27 04:35:17;;;;;;;12.17;4.83;;;;;;;13.60;100.00;98464.86;1491481;87;22247;-80
2023/10/27 04:37:44;;;;;;;14.13;4.57;;;;;;;13.63;100.00;98468.41;1486094;87;23016;-81
2023/10/27 04:40:12;;;;;;;7.17;4.00;;;;;;;13.66;100.00;98470.12;1475921;88;21418;-81
2023/10/27 04:42:39;;;;;;;7.70;3.73;;;;;;;13.67;100.00;98467.78;1485457;87;21536;-81
2023/10/27 04:45:07;;;;;;;11.33;4.93;;;;;;;13.69;100.00;98460.90;1473313;88;21478;-81
2023/10/27 04:47:34;;;;;;;8.43;4.87;;;;;;;13.71;100.00;98464.16;1483649;88;21343;-83
2023/10/27 04:50:02;;;;;;;14.43;5.50;;;;;;;13.74;100.00;98471.19;1483977;88;21448;-83
2023/10/27 04:52:29;;;;;;;10.50;4.07;;;;;;;13.75;100.00;98461.36;1484644;87;21433;-82
2023/10/27 04:54:56;;;;;;;7.97;4.33;;;;;;;13.76;100.00;98461.16;1451221;88;21506;-81
2023/10/27 04:57:24;;;;;;;9.97;4.20;;;;;;;13.80;100.00;98460.73;1477846;87;21286;-79
2023/10/27 04:59:51;;;;;;;9.23;4.50;;;;;;;13.82;100.00;98458.16;1477828;88;22759;-78
2023/10/27 05:02:18;;;;;;;7.00;4.53;;;;;;;13.84;100.00;98449.95;1472848;88;21375;-80
2023/10/27 05:04:45;;;;;;;9.27;4.27;;;;;;;13.84;100.00;98449.45;1486329;88;21574;-80
2023/10/27 05:07:12;;;;;;;9.50;4.83;;;;;;;13.84;100.00;98456.10;1479270;88;22376;-79
2023/10/27 05:09:40;;;;;;;7.47;3.93;;;;;;;13.85;100.00;98450.27;1474571;88;21331;-80
2023/10/27 05:12:07;;;;;;;11.50;4.27;;;;;;;13.89;100.00;98451.45;1482208;87;21426;-80
2023/10/27 05:14:36;;;;;;;12.53;5.17;;;;;;;13.89;100.00;98446.94;1484781;87;22080;-81
2023/10/27 05:17:03;;;;;;;7.27;4.10;;;;;;;13.89;100.00;98445.61;1497173;87;21395;-80
2023/10/27 05:19:32;;;;;;;9.07;3.77;;;;;;;13.90;100.00;98445.12;1484037;87;22151;-80
2023/10/27 05:22:04;;;;;;;8.90;5.47;;;;;;;13.90;100.00;98444.59;1471413;88;21419;-80
2023/10/27 05:24:29;;;;;;;10.47;4.27;;;;;;;13.91;100.00;98444.88;1487276;87;21470;-80
2023/10/27 05:26:56;;;;;;;5.30;4.13;;;;;;;13.91;100.00;98448.88;1470190;87;21544;-80
2023/10/27 05:29:25;;;;;;;6.50;3.77;;;;;;;13.93;100.00;98446.81;1471453;88;21382;-82
2023/10/27 05:31:53;;;;;;;5.63;4.53;;;;;;;13.95;100.00;98446.09;1483558;87;22359;-80
2023/10/27 05:34:20;;;;;;;9.30;4.13;;;;;;;13.96;100.00;98444.24;1471246;88;21381;-80
2023/10/27 05:36:47;;;;;;;9.50;4.03;;;;;;;13.98;100.00;98449.65;1474083;88;21337;-81
2023/10/27 05:39:20;;;;;;;10.37;3.60;;;;;;;14.01;100.00;98441.72;1487968;87;21235;-80
2023/10/27 05:41:47;;;;;;;9.87;3.70;;;;;;;14.05;100.00;98444.78;1486788;87;21910;-80
2023/10/27 05:44:15;;;;;;;6.53;3.83;;;;;;;14.08;100.00;98441.69;1481663;87;22486;-82
2023/10/27 05:46:42;;;;;;;6.63;3.57;;;;;;;14.10;100.00;98436.97;1483228;87;21383;-81
2023/10/27 05:49:09;;;;;;;7.47;4.17;;;;;;;14.09;100.00;98432.66;1477115;87;22386;-79
2023/10/27 05:51:37;;;;;;;7.27;3.30;;;;;;;14.10;100.00;98440.95;1479722;87;21979;-79
2023/10/27 05:54:05;;;;;;;9.40;3.80;;;;;;;14.12;100.00;98441.01;1476899;88;21471;-80
2023/10/27 05:56:32;;;;;;;8.83;3.60;;;;;;;14.12;100.00;98437.02;1476269;87;22446;-80
2023/10/27 05:59:00;;;;;;;6.80;2.97;;;;;;;14.14;100.00;98438.95;1478370;87;21360;-80
2023/10/27 06:01:27;;;;;;;7.10;3.77;;;;;;;14.14;100.00;98439.48;1483698;87;21315;-80
2023/10/27 06:03:57;;;;;;;5.70;3.83;;;;;;;14.13;100.00;98438.66;1490823;87;21387;-82
2023/10/27 06:06:24;;;;;;;4.60;3.17;;;;;;;14.14;100.00;98438.14;1484908;87;21530;-82
2023/10/27 06:08:52;;;;;;;4.83;2.87;;;;;;;14.13;100.00;98443.98;1477238;88;21360;-83
2023/10/27 06:11:19;;;;;;;6.73;2.50;;;;;;;14.14;100.00;98442.14;1482309;87;21530;-78
2023/10/27 06:13:47;;;;;;;4.10;2.30;;;;;;;14.15;100.00;98442.42;1484841;87;21412;-81
2023/10/27 06:16:14;;;;;;;5.47;2.73;;;;;;;14.15;100.00;98443.23;1483682;88;21382;-79
2023/10/27 06:18:41;;;;;;;4.93;2.27;;;;;;;14.18;100.00;98441.98;1490495;87;22351;-82
2023/10/27 06:21:09;;;;;;;8.10;2.80;;;;;;;14.19;100.00;98439.12;1482925;87;21382;-80
2023/10/27 06:23:36;;;;;;;2.70;1.93;;;;;;;14.21;100.00;98440.21;1482860;87;22950;-80
2023/10/27 06:26:04;;;;;;;3.43;2.17;;;;;;;14.20;100.00;98442.06;1479969;87;21538;-80
2023/10/27 06:28:34;;;;;;;9.90;5.30;;;;;;;14.20;100.00;98434.61;1477278;87;21382;-80
2023/10/27 06:31:03;;;;;;;11.10;7.60;;;;;;;14.21;100.00;98438.39;1490834;88;21366;-78
2023/10/27 06:33:33;;;;;;;11.93;7.77;;;;;;;14.21;100.00;98434.89;1484740;88;21502;-76
2023/10/27 06:36:00;;;;;;;4.05;2.83;;;;;;;14.22;100.00;98432.55;1482969;88;21574;-77
2023/10/27 06:38:29;;;;;;;5.70;2.87;;;;;;;14.23;100.00;98435.49;1481759;87;21322;-77
2023/10/27 06:40:57;;;;;;;5.00;2.10;;;;;;;14.27;100.00;98438.03;1480433;87;21469;-83
2023/10/27 06:43:24;;;;;;;5.13;2.30;;;;;;;14.27;100.00;98436.70;1481142;87;21360;-83
2023/10/27 06:45:51;;;;;;;2.77;1.50;;;;;;;14.27;100.00;98439.36;1474915;87;21533;-82
2023/10/27 06:48:19;;;;;;;2.23;1.87;;;;;;;14.28;100.00;98432.99;1482272;87;21352;-83
2023/10/27 06:50:46;;;;;;;5.10;1.80;;;;;;;14.29;100.00;98431.95;1489139;87;21693;-85
2023/10/27 06:53:13;;;;;;;3.23;1.60;;;;;;;14.32;100.00;98432.84;1479443;87;21449;-83
2023/10/27 06:55:41;;;;;;;1.63;1.37;;;;;;;14.34;100.00;98425.45;1481189;87;21317;-85
2023/10/27 06:58:08;;;;;;;2.23;1.50;;;;;;;14.35;100.00;98415.63;1481844;87;22277;-87
2023/10/27 07:00:36;;;;;;;1.63;1.13;;;;;;;14.38;100.00;98423.97;1486059;87;21308;-85
2023/10/27 07:03:04;;;;;;;2.10;1.53;;;;;;;14.38;100.00;98415.17;1469622;88;22476;-85
2023/10/27 07:05:31;;;;;;;4.90;0.97;;;;;;;14.38;100.00;98409.33;1481760;88;21530;-85
2023/10/27 07:07:58;;;;;;;1.30;1.20;;;;;;;14.42;100.00;98407.87;1486139;88;21359;-85
2023/10/27 07:10:25;;;;;;;2.73;1.13;;;;;;;14.43;100.00;98409.48;1485984;88;21489;-84
2023/10/27 07:12:53;;;;;;;3.30;0.90;;;;;;;14.43;100.00;98406.83;1480092;87;21368;-83
2023/10/27 07:15:20;;;;;;;8.90;2.00;;;;;;;14.45;100.00;98401.30;1475148;88;21396;-85
2023/10/27 07:17:47;;;;;;;4.07;1.20;;;;;;;14.48;100.00;98400.85;1473305;88;21515;-85
2023/10/27 07:20:15;;;;;;;5.00;1.10;;;;;;;14.48;100.00;98400.05;1479165;88;21330;-84
2023/10/27 07:22:42;;;;;;;1.53;1.07;;;;;;;14.51;100.00;98396.94;1492151;87;21396;-84
2023/10/27 07:25:09;;;;;;;4.77;1.60;;;;;;;14.49;100.00;98394.48;1486973;87;22343;-86
2023/10/27 07:27:37;;;;;;;1.47;0.90;;;;;;;14.52;100.00;98387.94;1483948;87;21426;-83
2023/10/27 07:30:06;;;;;;;1.83;1.10;;;;;;;14.53;100.00;98388.22;1489225;87;22011;-85
2023/10/27 07:32:33;;;;;;;2.50;1.93;;;;;;;14.56;100.00;98377.16;1482294;88;21367;-83
2023/10/27 07:35:03;;;;;;;6.17;2.23;;;;;;;14.59;100.00;98370.05;1480201;87;21508;-81
2023/10/27 07:37:31;;;;;;;4.05;2.50;;;;;;;14.61;100.00;98368.77;1482303;88;21493;-81
2023/10/27 07:39:58;;;;;;;2.00;1.43;;;;;;;14.63;100.00;98372.55;1481632;88;21257;-82
2023/10/27 07:42:25;;;;;;;3.43;1.57;;;;;;;14.63;100.00;98363.23;1481051;88;21345;-82
2023/10/27 07:44:52;;;;;;;4.73;2.60;;;;;;;14.63;100.00;98357.91;1473254;88;22306;-81
2023/10/27 07:47:19;;;;;;;1.87;1.60;;;;;;;14.65;100.00;98349.19;1485679;87;21375;-80
2023/10/27 07:49:47;;;;;;;5.57;2.03;;;;;;;14.65;100.00;98350.00;1456225;88;22240;-81
2023/10/27 07:52:14;;;;;;;3.30;2.37;;;;;;;14.64;100.00;98344.88;1465371;88;22060;-81
2023/10/27 07:54:41;;;;;;;3.33;1.53;;;;;;;14.67;100.00;98337.77;1468522;88;21500;-82
2023/10/27 07:57:08;;;;;;;2.43;1.90;;;;;;;14.66;100.00;98336.16;1481570;87;22334;-82
2023/10/27 07:59:36;;;;;;;2.50;1.70;;;;;;;14.70;100.00;98337.32;1469349;88;21612;-82
2023/10/27 08:02:04;;;;;;;1.37;1.17;;;;;;;14.75;100.00;98329.48;1474123;88;21390;-83
2023/10/27 08:04:32;;;;;;;2.47;1.43;;;;;;;14.78;100.00;98322.89;1472470;87;21372;-83
2023/10/27 08:07:00;;;;;;;1.93;1.13;;;;;;;14.81;100.00;98321.11;1472269;88;22379;-83
2023/10/27 08:09:29;;;;;;;1.40;1.27;;;;;;;14.82;100.00;98319.56;1475187;87;21346;-82
2023/10/27 08:11:56;;;;;;;1.10;1.00;;;;;;;14.88;100.00;98308.53;1472229;87;22705;-83
2023/10/27 08:14:24;;;;;;;1.20;1.00;;;;;;;14.89;100.00;98304.29;1495057;87;21279;-83
2023/10/27 08:16:52;;;;;;;4.03;1.90;;;;;;;14.93;100.00;98302.50;1469085;88;21390;-83
2023/10/27 08:19:20;;;;;;;3.27;1.87;;;;;;;14.99;100.00;98302.92;1477483;87;22038;-84
2023/10/27 08:21:48;;;;;;;3.47;1.43;;;;;;;15.00;100.00;98302.70;1474326;87;21390;-81
2023/10/27 08:24:16;;;;;;;4.33;1.63;;;;;;;15.06;100.00;98299.65;1470175;87;21375;-79
2023/10/27 08:26:43;;;;;;;1.70;1.27;;;;;;;15.08;100.00;98285.59;1474443;87;22350;-81
2023/10/27 08:29:10;;;;;;;1.10;1.00;;;;;;;15.09;100.00;98288.53;1472657;87;21530;-81
2023/10/27 08:31:38;;;;;;;1.47;1.00;;;;;;;15.07;100.00;98283.95;1475404;88;21354;-80
2023/10/27 08:34:10;;;;;;;1.70;1.50;;;;;;;15.07;100.00;98286.61;1472307;87;21545;-81
2023/10/27 08:36:35;;;;;;;1.30;1.20;;;;;;;15.11;100.00;98281.14;1470132;87;22381;-82
2023/10/27 08:39:03;;;;;;;2.87;1.37;;;;;;;15.08;100.00;98276.27;1479511;88;21534;-82
2023/10/27 08:41:32;;;;;;;3.90;1.53;;;;;;;15.12;100.00;98281.41;1475148;87;21375;-82
2023/10/27 08:43:59;;;;;;;3.13;1.13;;;;;;;15.10;100.00;98270.17;1472098;87;21559;-82
2023/10/27 08:46:32;;;;;;;1.70;1.50;;;;;;;15.10;100.00;98271.50;1469670;88;21354;-83
2023/10/27 08:48:59;;;;;;;3.63;1.70;;;;;;;15.07;100.00;98269.30;1466711;88;22455;-81
2023/10/27 08:51:28;;;;;;;2.67;1.60;;;;;;;15.06;100.00;98267.68;1484688;88;21448;-81
2023/10/27 08:53:57;;;;;;;2.20;2.00;;;;;;;15.00;100.00;98262.75;1478254;87;21544;-82
2023/10/27 08:56:25;;;;;;;3.23;2.10;;;;;;;14.97;100.00;98249.08;1482537;88;21425;-80
2023/10/27 08:58:52;;;;;;;1.97;1.37;;;;;;;14.93;100.00;98239.91;1486035;88;21410;-82
2023/10/27 09:01:19;;;;;;;3.03;1.80;;;;;;;14.89;100.00;98229.72;1484618;87;22203;-83
2023/10/27 09:04:07;;;;;;;2.47;1.53;;;;;;;14.87;100.00;98233.16;1484959;87;21928;-82
2023/10/27 09:06:35;;;;;;;2.77;1.33;;;;;;;14.84;100.00;98226.92;1490018;87;21433;-80
2023/10/27 09:09:05;;;;;;;4.67;1.87;;;;;;;14.82;100.00;98219.70;1486237;87;21565;-83
2023/10/27 09:11:48;;;;;;;3.27;2.47;;;;;;;14.81;100.00;98206.08;1483519;87;21426;-83
2023/10/27 09:14:30;;;;;;;3.30;2.60;;;;;;;14.78;100.00;98217.19;1483996;87;21525;-81
2023/10/27 09:17:06;;;;;;;3.40;2.40;;;;;;;14.75;100.00;98230.95;1485035;88;21544;-83
2023/10/27 09:19:34;;;;;;;2.20;1.67;;;;;;;14.71;100.00;98219.16;1483239;87;21448;-81
2023/10/27 09:22:05;;;;;;;7.10;3.63;;;;;;;14.68;100.00;98213.48;1480155;87;21981;-82
2023/10/27 09:24:32;;;;;;;4.00;2.50;;;;;;;14.64;100.00;98199.80;1485153;87;21745;-81
2023/10/27 09:27:00;;;;;;;4.23;2.63;;;;;;;14.59;100.00;98208.48;1473530;88;21463;-82
2023/10/27 09:29:30;;;;;;;6.13;2.90;;;;;;;14.60;100.00;98207.95;1483833;88;21308;-81
2023/10/27 09:31:57;;;;;;;5.50;3.20;;;;;;;14.55;100.00;98191.84;1483342;87;21432;-77
2023/10/27 09:34:26;;;;;;;5.60;2.40;;;;;;;14.54;100.00;98182.25;1483209;87;21353;-81
2023/10/27 09:36:56;;;;;;;3.73;2.23;;;;;;;14.54;100.00;98186.24;1484651;87;22111;-82
2023/10/27 09:39:25;;;;;;;4.12;2.55;;;;;;;14.56;100.00;98177.52;1488739;87;22499;-81
2023/10/27 09:42:05;;;;;;;1.80;1.60;;;;;;;14.56;100.00;98164.21;1479948;87;21404;-84
2023/10/27 09:44:42;;;;;;;3.87;2.00;;;;;;;14.56;100.00;98164.21;1478533;87;21785;-84
2023/10/27 09:47:16;;;;;;;4.30;2.30;;;;;;;14.54;100.00;98155.63;1487499;87;22291;-81
2023/10/27 09:49:46;;;;;;;4.20;2.50;;;;;;;14.53;100.00;98152.17;1478024;88;21441;-80
2023/10/27 09:52:16;;;;;;;3.37;2.10;;;;;;;14.54;100.00;98150.31;1538667;88;21352;-83
2023/10/27 09:54:44;;;;;;;3.27;2.42;;;;;;;14.54;100.00;98151.64;1410028;87;22334;-82
2023/10/27 09:57:12;;;;;;;6.20;3.87;;;;;;;14.58;100.00;98148.80;1569671;87;21213;-80
2023/10/27 09:59:42;;;;;;;4.30;3.07;;;;;;;14.58;100.00;98147.47;1406359;87;22339;-82
2023/10/27 10:02:10;;;;;;;6.47;3.08;;;;;;;14.58;100.00;98128.84;1426903;87;21389;-83
2023/10/27 10:05:00;;;;;;;5.77;2.83;;;;;;;14.60;100.00;98124.11;1485317;87;22373;-83
2023/10/27 10:07:52;;;;;;;3.50;2.00;;;;;;;14.62;100.00;98131.34;1483694;87;22262;-83
2023/10/27 10:10:33;;;;;;;4.63;2.80;;;;;;;14.61;100.00;98115.06;1405937;87;22162;-83
2023/10/27 10:13:06;;;;;;;7.43;3.37;;;;;;;14.60;100.00;98102.81;1397746;88;21272;-83
2023/10/27 10:15:36;;;;;;;4.07;2.17;;;;;;;14.61;100.00;98097.77;1481066;87;21448;-82
2023/10/27 10:18:06;;;;;;;3.47;2.05;;;;;;;14.62;100.00;98089.56;1481833;87;21453;-83
2023/10/27 10:20:58;;;;;;;4.70;3.12;;;;;;;14.65;100.00;98089.63;1489518;87;21390;-83
2023/10/27 10:23:44;;;;;;;4.37;2.87;;;;;;;14.65;100.00;98089.63;1480608;88;21375;-83
2023/10/27 10:26:12;;;;;;;4.63;3.00;;;;;;;14.69;100.00;98084.64;1477599;88;21895;-84
2023/10/27 10:28:41;;;;;;;5.77;3.37;;;;;;;14.68;100.00;98073.19;1485275;87;21374;-83
2023/10/27 10:31:13;;;;;;;4.40;3.43;;;;;;;14.68;100.00;98067.86;1470768;88;21331;-83
2023/10/27 10:33:44;;;;;;;3.30;2.70;;;;;;;14.68;100.00;98051.89;1467711;88;22315;-84
2023/10/27 10:36:22;;;;;;;4.27;2.83;;;;;;;14.69;100.00;98056.16;1488154;87;22402;-84
2023/10/27 10:39:00;;;;;;;6.53;3.97;;;;;;;14.68;100.00;98054.55;1486338;87;21352;-82
2023/10/27 10:41:49;;;;;;;5.03;3.27;;;;;;;14.71;100.00;98047.95;1484369;88;21404;-83
2023/10/27 10:44:18;;;;;;;5.23;2.50;;;;;;;14.72;100.00;98043.72;1485185;88;21486;-83
2023/10/27 10:46:46;;;;;;;4.97;2.40;;;;;;;14.72;100.00;98030.93;1470509;88;21573;-89
2023/10/27 10:49:25;;;;;;;4.73;2.57;;;;;;;14.71;100.00;98030.12;1485889;87;21590;-82
2023/10/27 10:51:57;;;;;;;6.70;2.30;;;;;;;14.73;100.00;98028.05;1483569;88;21595;-81
2023/10/27 10:54:30;;;;;;;4.30;2.63;;;;;;;14.73;100.00;98014.73;1485992;87;21470;-81
2023/10/27 10:57:08;;;;;;;4.40;2.87;;;;;;;14.73;100.00;98019.23;1482248;88;22256;-83
2023/10/27 10:59:36;;;;;;;6.67;4.03;;;;;;;14.71;100.00;97995.52;1481236;87;21412;-82
2023/10/27 11:02:04;;;;;;;4.07;2.50;;;;;;;14.72;100.00;98017.63;1485289;88;22386;-81
2023/10/27 11:04:34;;;;;;;5.97;2.40;;;;;;;14.69;100.00;97989.61;1484617;87;21345;-86
2023/10/27 11:07:03;;;;;;;4.87;3.05;;;;;;;14.73;100.00;97988.61;1478060;87;21382;-84
2023/10/27 11:09:31;;;;;;;6.57;3.13;;;;;;;14.76;100.00;97974.33;1484001;88;21293;-85
2023/10/27 11:12:00;;;;;;;4.80;2.30;;;;;;;14.77;100.00;97985.26;1481129;87;21569;-84
2023/10/27 11:14:28;;;;;;;3.90;2.07;;;;;;;14.79;100.00;97971.20;1470808;88;21374;-85
2023/10/27 11:17:02;;;;;;;6.53;2.40;;;;;;;14.89;100.00;97968.73;1469741;88;22277;-82
2023/10/27 11:19:29;;;;;;;8.77;3.90;;;;;;;15.03;100.00;97961.29;1482270;88;22335;-80
2023/10/27 11:21:56;;;;;;;11.10;5.60;;;;;;;15.08;100.00;97960.59;1487234;87;21404;-82
2023/10/27 11:24:24;;;;;;;8.93;4.17;;;;;;;15.07;100.00;97963.75;1471136;88;21488;-80
2023/10/27 11:26:51;;;;;;;8.43;4.10;;;;;;;15.04;100.00;97958.09;1484209;87;21389;-81
2023/10/27 11:29:18;;;;;;;11.27;4.73;;;;;;;15.00;100.00;97943.65;1484428;87;21511;-81
2023/10/27 11:31:47;;;;;;;6.47;4.27;;;;;;;14.99;100.00;97931.36;1469410;88;21507;-81